Time;durP1;ratioP1;P1;durP2;ratioP2;P2;SDS_P1;SDS_P2;PMS_P1;PMS_P2;Temp;Humidity;BMP_temperature;BMP_pressure;BME280_temperature;BME280_humidity;BME280_pressure;Samples;Min_cycle;Max_cycle;Signal;HPM_P1;HPM_P2
2024/01/10 00:02:19;;;;;;;0.60;0.60;;;;;;;3.31;45.55;103418.22;5095136;28;20496;-75
2024/01/10 00:04:45;;;;;;;0.60;0.60;;;;;;;3.53;44.79;103424.47;5115465;28;20034;-75
2024/01/10 00:07:10;;;;;;;0.60;0.60;;;;;;;3.70;44.12;103422.31;5114710;28;20046;-76
2024/01/10 00:09:35;;;;;;;0.50;0.50;;;;;;;3.84;43.82;103417.63;5114479;28;20507;-74
2024/01/10 00:12:01;;;;;;;0.60;0.60;;;;;;;3.49;44.53;103417.69;5114307;28;20032;-75
2024/01/10 00:14:26;;;;;;;0.60;0.60;;;;;;;3.63;43.92;103419.28;5113746;28;20196;-76
2024/01/10 00:16:52;;;;;;;0.70;0.70;;;;;;;3.28;44.65;103410.47;5115135;28;20035;-75
2024/01/10 00:19:17;;;;;;;0.60;0.60;;;;;;;3.43;44.56;103407.50;5094906;28;20522;-75
2024/01/10 00:21:43;;;;;;;0.60;0.60;;;;;;;3.49;44.31;103406.19;5113110;28;20473;-74
2024/01/10 00:24:08;;;;;;;0.67;0.67;;;;;;;3.73;44.27;103403.47;5106825;28;20036;-75
2024/01/10 00:26:34;;;;;;;0.50;0.50;;;;;;;3.55;44.70;103414.56;5093684;28;20113;-74
2024/01/10 00:28:59;;;;;;;0.50;0.50;;;;;;;3.63;43.80;103408.66;5093686;28;20440;-74
2024/01/10 00:31:24;;;;;;;0.50;0.50;;;;;;;3.34;44.89;103402.06;5091600;28;20510;-74
2024/01/10 00:33:50;;;;;;;0.70;0.70;;;;;;;3.28;44.59;103400.69;5111836;28;20035;-75
2024/01/10 00:36:15;;;;;;;0.60;0.60;;;;;;;3.34;44.88;103389.59;5094770;28;20673;-77
2024/01/10 00:38:40;;;;;;;0.60;0.60;;;;;;;3.34;44.09;103388.75;5094534;28;20036;-76
2024/01/10 00:41:06;;;;;;;0.60;0.60;;;;;;;3.51;43.70;103390.97;5113113;28;20398;-75
2024/01/10 00:43:31;;;;;;;0.50;0.50;;;;;;;3.48;44.04;103388.53;5113918;28;20043;-77
2024/01/10 00:45:57;;;;;;;0.60;0.60;;;;;;;3.41;44.02;103398.81;5096446;28;20032;-73
2024/01/10 00:48:22;;;;;;;0.50;0.50;;;;;;;3.48;43.82;103402.69;5091258;28;20047;-76
2024/01/10 00:50:48;;;;;;;0.53;0.53;;;;;;;3.37;44.28;103391.19;5093619;28;20126;-73
2024/01/10 00:53:13;;;;;;;0.53;0.53;;;;;;;3.29;45.04;103388.25;5092799;28;20027;-74
2024/01/10 00:55:38;;;;;;;0.53;0.53;;;;;;;3.51;44.05;103386.53;5093249;28;20024;-73
2024/01/10 00:58:04;;;;;;;0.60;0.60;;;;;;;3.39;44.65;103391.91;5092716;28;20043;-74
2024/01/10 01:00:29;;;;;;;0.53;0.53;;;;;;;3.42;44.49;103387.19;5091635;28;20132;-76
2024/01/10 01:02:55;;;;;;;0.67;0.67;;;;;;;3.50;43.94;103391.94;5110099;28;20039;-74
2024/01/10 01:05:20;;;;;;;0.60;0.60;;;;;;;3.19;44.83;103389.91;5112853;28;20034;-74
2024/01/10 01:07:45;;;;;;;0.50;0.50;;;;;;;3.38;44.35;103393.72;5113596;28;20024;-75
2024/01/10 01:10:11;;;;;;;0.50;0.50;;;;;;;3.43;44.69;103386.25;5112706;28;20039;-75
2024/01/10 01:12:37;;;;;;;0.60;0.60;;;;;;;3.27;44.64;103390.16;5112777;28;20036;-75
2024/01/10 01:15:03;;;;;;;0.50;0.50;;;;;;;3.23;44.96;103392.22;5094159;28;20077;-72
2024/01/10 01:17:29;;;;;;;0.60;0.60;;;;;;;3.01;45.64;103385.94;5112640;28;20031;-74
2024/01/10 01:19:54;;;;;;;0.50;0.50;;;;;;;3.42;44.69;103387.19;5112568;28;20045;-73
2024/01/10 01:22:19;;;;;;;0.60;0.60;;;;;;;3.63;43.66;103394.50;5112098;28;20036;-74
2024/01/10 01:24:45;;;;;;;0.57;0.57;;;;;;;3.37;44.35;103394.69;5092933;28;20487;-73
2024/01/10 01:27:10;;;;;;;0.57;0.57;;;;;;;3.37;44.55;103399.16;5092830;28;20118;-72
2024/01/10 01:29:36;;;;;;;0.70;0.70;;;;;;;3.60;43.59;103392.09;5111303;28;20096;-76
2024/01/10 01:32:01;;;;;;;0.50;0.50;;;;;;;3.61;43.43;103397.28;5108546;28;20756;-74
2024/01/10 01:34:26;;;;;;;0.60;0.60;;;;;;;3.37;44.77;103388.53;5091308;28;20076;-73
2024/01/10 01:36:52;;;;;;;0.50;0.50;;;;;;;3.27;44.62;103388.38;5091252;28;20062;-74
2024/01/10 01:39:20;;;;;;;0.73;0.73;;;;;;;3.03;45.70;103392.00;5091258;28;20048;-73
2024/01/10 01:41:45;;;;;;;0.60;0.60;;;;;;;3.09;44.72;103380.91;5109015;28;20040;-75
2024/01/10 01:44:11;;;;;;;0.60;0.60;;;;;;;3.45;44.82;103383.47;5111764;28;20027;-73
2024/01/10 01:46:40;;;;;;;0.60;0.60;;;;;;;3.36;45.12;103381.53;5111936;28;20027;-76
2024/01/10 01:49:06;;;;;;;0.70;0.70;;;;;;;3.43;44.46;103380.09;5111260;28;20402;-74
2024/01/10 01:51:36;;;;;;;0.70;0.70;;;;;;;3.43;44.18;103372.97;5093440;28;20035;-74
2024/01/10 01:54:04;;;;;;;0.63;0.63;;;;;;;3.16;44.57;103375.06;5111392;28;20032;-75
2024/01/10 01:56:29;;;;;;;0.67;0.67;;;;;;;3.38;44.55;103375.09;5111524;28;20032;-74
2024/01/10 01:58:55;;;;;;;0.70;0.70;;;;;;;3.28;45.13;103368.78;5112371;28;20039;-74
2024/01/10 02:01:23;;;;;;;0.70;0.70;;;;;;;3.51;44.76;103375.03;5111207;28;20043;-76
2024/01/10 02:03:49;;;;;;;0.70;0.70;;;;;;;3.12;44.99;103378.06;5111043;28;20066;-75
2024/01/10 02:06:14;;;;;;;0.53;0.53;;;;;;;3.29;44.82;103364.34;5111932;28;20051;-74
2024/01/10 02:08:40;;;;;;;0.50;0.50;;;;;;;3.42;44.19;103373.09;5111799;28;20088;-75
2024/01/10 02:11:06;;;;;;;0.50;0.50;;;;;;;3.17;45.12;103366.09;5112231;28;20364;-75
2024/01/10 02:13:34;;;;;;;0.60;0.60;;;;;;;3.32;44.98;103364.13;5111370;28;20034;-72
2024/01/10 02:16:00;;;;;;;0.60;0.60;;;;;;;3.04;44.33;103361.84;5111565;28;20040;-74
2024/01/10 02:18:25;;;;;;;0.60;0.60;;;;;;;3.34;45.01;103363.00;5111395;28;20034;-73
2024/01/10 02:20:52;;;;;;;0.80;0.80;;;;;;;2.99;45.14;103364.81;5110663;28;20606;-67
2024/01/10 02:23:17;;;;;;;0.57;0.57;;;;;;;2.48;46.42;103364.19;5110847;28;20016;-67
2024/01/10 02:25:43;;;;;;;0.60;0.60;;;;;;;2.87;45.43;103357.75;5111131;28;20054;-67
2024/01/10 02:28:09;;;;;;;0.60;0.60;;;;;;;3.31;44.99;103359.75;5110281;28;20092;-68
2024/01/10 02:30:35;;;;;;;0.83;0.83;;;;;;;3.30;44.76;103355.41;5110519;28;20139;-67
2024/01/10 02:33:00;;;;;;;0.67;0.67;;;;;;;2.93;45.51;103356.50;5099015;28;20464;-67
2024/01/10 02:35:26;;;;;;;0.70;0.70;;;;;;;3.09;45.27;103344.59;5090486;28;20499;-67
2024/01/10 02:37:52;;;;;;;0.60;0.60;;;;;;;2.98;45.28;103341.91;5090864;28;20103;-68
2024/01/10 02:40:18;;;;;;;0.60;0.60;;;;;;;3.07;45.03;103338.53;5096290;28;20039;-68
2024/01/10 02:42:43;;;;;;;0.60;0.60;;;;;;;2.96;45.08;103338.50;5114107;28;20039;-66
2024/01/10 02:45:09;;;;;;;0.60;0.60;;;;;;;2.83;45.88;103335.06;5114175;28;20031;-67
2024/01/10 02:47:36;;;;;;;0.50;0.50;;;;;;;2.37;47.08;103339.41;5114427;28;20036;-67
2024/01/10 02:50:02;;;;;;;0.50;0.50;;;;;;;2.60;46.68;103330.59;5114753;28;20024;-68
2024/01/10 02:52:28;;;;;;;0.57;0.57;;;;;;;2.42;46.74;103334.59;5114236;28;20403;-70
2024/01/10 02:54:53;;;;;;;0.60;0.60;;;;;;;1.89;47.85;103337.59;5114233;28;20258;-68
2024/01/10 02:57:19;;;;;;;0.63;0.63;;;;;;;2.78;45.72;103329.25;5114154;28;20629;-68
2024/01/10 02:59:44;;;;;;;0.60;0.60;;;;;;;2.98;44.83;103331.28;5114162;28;20074;-67
2024/01/10 03:02:09;;;;;;;0.80;0.80;;;;;;;2.73;45.94;103325.25;5114248;28;20581;-71
2024/01/10 03:04:35;;;;;;;0.70;0.70;;;;;;;2.89;45.53;103323.97;5114829;28;20046;-67
2024/01/10 03:07:00;;;;;;;0.70;0.70;;;;;;;2.58;46.25;103327.22;5113683;28;20073;-69
2024/01/10 03:09:25;;;;;;;0.80;0.80;;;;;;;2.20;46.61;103329.97;5113946;28;20031;-68
2024/01/10 03:11:51;;;;;;;0.60;0.60;;;;;;;2.70;46.10;103323.66;5113728;28;20525;-68
2024/01/10 03:14:16;;;;;;;0.70;0.70;;;;;;;3.09;45.03;103320.69;5113825;28;20111;-69
2024/01/10 03:16:41;;;;;;;0.40;0.40;;;;;;;3.12;44.63;103317.81;5114188;28;20102;-67
2024/01/10 03:19:07;;;;;;;0.60;0.60;;;;;;;2.84;44.36;103325.28;5113767;28;20035;-68
2024/01/10 03:21:32;;;;;;;0.60;0.60;;;;;;;2.22;45.83;103324.59;5113856;28;20127;-75
2024/01/10 03:23:59;;;;;;;0.60;0.60;;;;;;;2.49;46.64;103320.78;5113644;28;20135;-72
2024/01/10 03:26:26;;;;;;;0.60;0.60;;;;;;;2.33;46.17;103316.69;5114209;28;20023;-74
2024/01/10 03:28:51;;;;;;;0.60;0.60;;;;;;;2.58;45.65;103298.88;5114608;28;20522;-72
2024/01/10 03:31:17;;;;;;;0.50;0.50;;;;;;;2.21;45.61;103304.31;5113516;28;20036;-72
2024/01/10 03:33:42;;;;;;;0.73;0.73;;;;;;;2.48;45.49;103299.66;5096225;28;20123;-72
2024/01/10 03:36:11;;;;;;;0.77;0.77;;;;;;;2.19;45.85;103308.88;5093651;28;20465;-72
2024/01/10 03:38:37;;;;;;;0.60;0.60;;;;;;;2.72;44.24;103294.34;5093242;28;20039;-73
2024/01/10 03:41:02;;;;;;;0.60;0.60;;;;;;;2.50;45.65;103293.28;5105702;28;20729;-74
2024/01/10 03:43:27;;;;;;;0.70;0.70;;;;;;;2.24;46.06;103302.28;5113215;28;20040;-74
2024/01/10 03:45:53;;;;;;;0.73;0.73;;;;;;;2.95;44.79;103304.09;5113548;28;20071;-75
2024/01/10 03:48:19;;;;;;;0.67;0.67;;;;;;;3.09;43.97;103295.91;5113293;28;20078;-73
2024/01/10 03:50:44;;;;;;;0.70;0.70;;;;;;;3.41;43.04;103296.97;5113190;28;20028;-73
2024/01/10 03:53:10;;;;;;;0.70;0.70;;;;;;;3.37;43.24;103291.06;5112884;28;20028;-73
2024/01/10 03:55:35;;;;;;;0.70;0.70;;;;;;;2.98;43.98;103290.59;5113107;28;20039;-73
2024/01/10 03:58:01;;;;;;;0.70;0.70;;;;;;;2.65;44.08;103293.97;5112990;28;20059;-71
2024/01/10 04:00:26;;;;;;;0.60;0.60;;;;;;;2.67;44.14;103295.53;5113203;28;20035;-71
2024/01/10 04:02:52;;;;;;;0.67;0.67;;;;;;;3.29;42.71;103295.25;5112531;28;20127;-72
2024/01/10 04:05:19;;;;;;;0.50;0.50;;;;;;;2.64;44.50;103301.06;5113128;28;20480;-72
2024/01/10 04:07:44;;;;;;;0.70;0.70;;;;;;;3.51;42.33;103296.16;5113512;28;20024;-74
2024/01/10 04:10:11;;;;;;;0.77;0.77;;;;;;;3.58;42.33;103304.47;5112737;28;20100;-71
2024/01/10 04:12:37;;;;;;;0.60;0.60;;;;;;;3.22;42.46;103297.53;5112762;28;20602;-73
2024/01/10 04:15:04;;;;;;;1.00;1.00;;;;;;;3.17;42.72;103297.03;5112720;28;20047;-71
2024/01/10 04:17:29;;;;;;;0.70;0.70;;;;;;;2.56;44.09;103302.59;5112791;28;20058;-72
2024/01/10 04:19:55;;;;;;;0.70;0.70;;;;;;;3.14;43.01;103289.31;5113866;28;20027;-75
2024/01/10 04:22:20;;;;;;;0.50;0.50;;;;;;;2.97;43.97;103296.88;5112842;28;20036;-70
2024/01/10 04:24:45;;;;;;;0.70;0.70;;;;;;;3.23;43.35;103291.25;5112665;28;20505;-73
2024/01/10 04:27:12;;;;;;;0.60;0.60;;;;;;;3.34;42.42;103304.56;5112337;28;20063;-72
2024/01/10 04:29:37;;;;;;;0.70;0.70;;;;;;;3.37;42.11;103298.16;5112353;28;20109;-72
2024/01/10 04:32:03;;;;;;;0.70;0.70;;;;;;;3.37;42.24;103295.50;5108976;28;20522;-71
2024/01/10 04:34:29;;;;;;;0.60;0.60;;;;;;;3.32;42.52;103293.19;5091785;28;20032;-71
2024/01/10 04:36:54;;;;;;;0.60;0.60;;;;;;;3.52;41.69;103295.16;5090947;28;20036;-71
2024/01/10 04:39:19;;;;;;;0.77;0.77;;;;;;;3.11;42.74;103297.50;5092055;28;20032;-71
2024/01/10 04:41:45;;;;;;;0.60;0.60;;;;;;;3.09;42.70;103287.94;5093552;28;20086;-70
2024/01/10 04:44:10;;;;;;;0.60;0.60;;;;;;;3.19;42.62;103280.97;5111794;28;20364;-71
2024/01/10 04:46:35;;;;;;;0.70;0.70;;;;;;;2.87;43.58;103271.97;5112450;28;20035;-70
2024/01/10 04:49:01;;;;;;;0.70;0.70;;;;;;;3.12;42.54;103274.44;5111769;28;20041;-70
2024/01/10 04:51:26;;;;;;;0.50;0.50;;;;;;;3.40;42.45;103268.72;5111676;28;20038;-70
2024/01/10 04:53:51;;;;;;;0.60;0.60;;;;;;;3.19;42.42;103267.69;5111895;28;20050;-71
2024/01/10 04:56:17;;;;;;;0.60;0.60;;;;;;;2.92;42.59;103265.34;5111482;28;20123;-71
2024/01/10 04:58:43;;;;;;;0.60;0.60;;;;;;;2.58;43.26;103266.16;5111985;28;20030;-71
2024/01/10 05:01:08;;;;;;;0.60;0.60;;;;;;;3.13;42.10;103265.50;5109697;28;20135;-70
2024/01/10 05:03:33;;;;;;;0.60;0.60;;;;;;;2.09;44.18;103260.97;5110156;28;20035;-70
2024/01/10 05:05:59;;;;;;;0.67;0.67;;;;;;;2.44;43.38;103267.19;5111209;28;20034;-70
2024/01/10 05:08:24;;;;;;;0.43;0.43;;;;;;;2.56;43.58;103265.44;5110743;28;20059;-70
2024/01/10 05:10:50;;;;;;;0.60;0.60;;;;;;;2.51;43.83;103265.81;5111568;28;20051;-70
2024/01/10 05:13:15;;;;;;;0.60;0.60;;;;;;;3.18;42.46;103261.56;5110839;28;20379;-71
2024/01/10 05:15:41;;;;;;;0.60;0.60;;;;;;;3.13;41.51;103253.06;5111079;28;20110;-71
2024/01/10 05:18:06;;;;;;;0.50;0.50;;;;;;;2.80;42.68;103258.31;5110614;28;20035;-71
2024/01/10 05:20:31;;;;;;;0.60;0.60;;;;;;;3.29;41.32;103266.03;5111189;28;20041;-70
2024/01/10 05:22:58;;;;;;;0.70;0.70;;;;;;;3.33;41.25;103260.38;5111661;28;20106;-71
2024/01/10 05:25:24;;;;;;;0.60;0.60;;;;;;;3.30;41.97;103276.53;5111129;28;20055;-70
2024/01/10 05:27:50;;;;;;;0.70;0.70;;;;;;;3.27;41.50;103270.59;5110662;28;20047;-69
2024/01/10 05:30:15;;;;;;;0.60;0.60;;;;;;;2.97;41.81;103275.63;5110793;28;20059;-70
2024/01/10 05:32:41;;;;;;;0.60;0.60;;;;;;;3.05;42.12;103278.53;5111254;28;20468;-72
2024/01/10 05:35:07;;;;;;;0.80;0.80;;;;;;;3.38;41.04;103278.63;5111035;28;20096;-69
2024/01/10 05:37:33;;;;;;;0.60;0.60;;;;;;;3.41;41.46;103273.06;5109858;28;20035;-71
2024/01/10 05:39:58;;;;;;;0.70;0.70;;;;;;;3.18;42.52;103274.84;5110091;28;20044;-69
2024/01/10 05:42:24;;;;;;;0.57;0.57;;;;;;;3.28;41.14;103269.66;5091750;28;20130;-70
2024/01/10 05:44:50;;;;;;;0.70;0.70;;;;;;;3.10;42.05;103268.41;5110598;28;20477;-71
2024/01/10 05:47:15;;;;;;;0.83;0.83;;;;;;;2.74;42.48;103272.03;5110335;28;20071;-69
2024/01/10 05:49:42;;;;;;;0.50;0.50;;;;;;;3.07;42.16;103276.59;5092489;28;20528;-70
2024/01/10 05:52:07;;;;;;;0.70;0.70;;;;;;;3.36;41.84;103267.25;5110518;28;20036;-70
2024/01/10 05:54:33;;;;;;;0.60;0.60;;;;;;;2.99;42.52;103271.06;5110669;28;20040;-70
2024/01/10 05:57:00;;;;;;;0.53;0.53;;;;;;;3.37;41.15;103274.25;5106928;28;20118;-70
2024/01/10 05:59:25;;;;;;;0.63;0.63;;;;;;;3.31;41.82;103275.56;5110153;28;20475;-70
2024/01/10 06:01:50;;;;;;;0.63;0.63;;;;;;;3.20;41.68;103267.59;5091368;28;20115;-70
2024/01/10 06:04:16;;;;;;;0.60;0.60;;;;;;;3.13;42.21;103263.69;5110197;28;20125;-70
2024/01/10 06:06:42;;;;;;;0.73;0.73;;;;;;;3.28;41.55;103264.34;5110201;28;20032;-70
2024/01/10 06:09:10;;;;;;;0.50;0.50;;;;;;;2.88;42.45;103258.56;5110548;28;20200;-72
2024/01/10 06:11:40;;;;;;;0.70;0.70;;;;;;;2.75;42.26;103247.19;5110569;28;20043;-70
2024/01/10 06:14:06;;;;;;;0.50;0.50;;;;;;;2.87;42.36;103248.91;5110856;28;20023;-70
2024/01/10 06:16:31;;;;;;;0.50;0.50;;;;;;;3.11;41.74;103255.00;5110744;28;20076;-70
2024/01/10 06:18:56;;;;;;;0.60;0.60;;;;;;;2.76;42.18;103248.88;5114743;28;20474;-71
2024/01/10 06:21:22;;;;;;;0.60;0.60;;;;;;;3.25;40.84;103245.97;5114485;28;20048;-70
2024/01/10 06:23:47;;;;;;;0.50;0.50;;;;;;;2.13;43.72;103250.97;5113800;28;20236;-71
2024/01/10 06:26:12;;;;;;;0.50;0.50;;;;;;;2.90;42.52;103255.78;5113632;28;20132;-70
2024/01/10 06:28:38;;;;;;;0.50;0.50;;;;;;;2.85;42.05;103255.31;5114793;28;20039;-70
2024/01/10 06:31:04;;;;;;;0.70;0.70;;;;;;;3.02;42.12;103254.88;5111497;28;20058;-72
2024/01/10 06:33:29;;;;;;;0.70;0.70;;;;;;;2.68;42.36;103261.88;5113915;28;20039;-70
2024/01/10 06:35:55;;;;;;;0.57;0.57;;;;;;;2.96;42.36;103250.88;5113271;28;20122;-70
2024/01/10 06:38:22;;;;;;;0.50;0.50;;;;;;;2.70;42.33;103244.03;5113366;28;20039;-72
2024/01/10 06:40:48;;;;;;;0.60;0.60;;;;;;;2.87;42.04;103243.59;5114308;28;20096;-70
2024/01/10 06:43:14;;;;;;;0.60;0.60;;;;;;;2.69;42.58;103243.16;5094835;28;20128;-72
2024/01/10 06:45:40;;;;;;;0.50;0.50;;;;;;;2.97;42.67;103241.94;5113617;28;20387;-70
2024/01/10 06:48:06;;;;;;;0.53;0.53;;;;;;;3.02;42.21;103247.75;5114065;28;20040;-70
2024/01/10 06:50:31;;;;;;;0.70;0.70;;;;;;;3.16;41.27;103246.69;5114442;28;20035;-71
2024/01/10 06:52:57;;;;;;;0.50;0.50;;;;;;;2.87;42.50;103254.22;5114865;28;20027;-72
2024/01/10 06:55:24;;;;;;;0.60;0.60;;;;;;;2.83;41.96;103249.28;5114534;28;20040;-71
2024/01/10 06:57:52;;;;;;;0.30;0.30;;;;;;;3.08;41.67;103246.44;5114145;28;20479;-71
2024/01/10 07:00:21;;;;;;;0.60;0.60;;;;;;;2.77;42.28;103242.63;5113102;28;20511;-71
2024/01/10 07:02:48;;;;;;;0.57;0.57;;;;;;;3.15;42.55;103244.97;5106736;28;20464;-71
2024/01/10 07:05:14;;;;;;;0.50;0.50;;;;;;;2.88;42.90;103261.22;5112556;28;20532;-70
2024/01/10 07:07:39;;;;;;;0.67;0.67;;;;;;;2.99;42.63;103260.44;5113323;28;20040;-71
2024/01/10 07:10:05;;;;;;;0.63;0.63;;;;;;;3.06;41.85;103265.16;5111912;28;20046;-70
2024/01/10 07:12:31;;;;;;;0.70;0.70;;;;;;;2.80;43.04;103278.69;5112563;28;20043;-70
2024/01/10 07:14:57;;;;;;;0.60;0.60;;;;;;;2.85;43.09;103272.06;5113368;28;20104;-70
2024/01/10 07:17:22;;;;;;;0.63;0.63;;;;;;;2.86;42.06;103267.59;5097574;28;20103;-70
2024/01/10 07:19:48;;;;;;;0.60;0.60;;;;;;;2.79;42.67;103272.53;5113213;28;20417;-70
2024/01/10 07:22:14;;;;;;;0.50;0.50;;;;;;;2.78;43.36;103275.31;5112948;28;20039;-69
2024/01/10 07:24:39;;;;;;;0.70;0.70;;;;;;;2.76;43.21;103269.25;5113523;28;20392;-71
2024/01/10 07:27:06;;;;;;;0.60;0.60;;;;;;;2.69;42.83;103272.38;5112000;28;20544;-71
2024/01/10 07:29:31;;;;;;;0.50;0.50;;;;;;;3.00;41.92;103276.25;5111758;28;20044;-71
2024/01/10 07:31:57;;;;;;;0.60;0.60;;;;;;;2.38;43.91;103269.44;5111787;28;20104;-71
2024/01/10 07:34:22;;;;;;;0.53;0.53;;;;;;;2.95;42.69;103275.72;5111741;28;20126;-70
2024/01/10 07:36:47;;;;;;;0.63;0.63;;;;;;;2.96;42.42;103272.13;5111935;28;20055;-71
2024/01/10 07:39:15;;;;;;;0.60;0.60;;;;;;;3.12;41.70;103275.31;5111843;28;20040;-70
2024/01/10 07:41:41;;;;;;;0.70;0.70;;;;;;;2.81;43.22;103281.22;5112029;28;20079;-70
2024/01/10 07:44:09;;;;;;;0.60;0.60;;;;;;;2.67;43.21;103284.09;5112100;28;20034;-67
2024/01/10 07:46:37;;;;;;;0.50;0.50;;;;;;;2.91;42.63;103271.59;5112421;28;20115;-70
2024/01/10 07:49:03;;;;;;;0.60;0.60;;;;;;;2.88;42.42;103265.69;5093509;28;20080;-70
2024/01/10 07:51:29;;;;;;;0.60;0.60;;;;;;;2.29;43.91;103254.22;5111550;28;20556;-70
2024/01/10 07:53:55;;;;;;;0.50;0.50;;;;;;;2.56;43.52;103268.09;5111881;28;20036;-70
2024/01/10 07:56:20;;;;;;;0.40;0.40;;;;;;;2.83;43.04;103262.53;5112332;28;20118;-70
2024/01/10 07:58:55;;;;;;;0.70;0.70;;;;;;;2.99;42.91;103263.09;5112164;28;20031;-70
2024/01/10 08:01:21;;;;;;;0.60;0.60;;;;;;;2.34;43.34;103257.41;5106934;28;20514;-71
2024/01/10 08:03:46;;;;;;;0.50;0.50;;;;;;;2.76;42.81;103255.97;5091559;28;20593;-71
2024/01/10 08:06:13;;;;;;;0.70;0.70;;;;;;;2.98;42.93;103262.22;5104547;28;20072;-70
2024/01/10 08:08:38;;;;;;;0.50;0.50;;;;;;;2.66;43.21;103259.34;5112008;28;20039;-71
2024/01/10 08:11:04;;;;;;;0.70;0.70;;;;;;;2.72;42.99;103255.38;5112288;28;20449;-71
2024/01/10 08:13:30;;;;;;;0.60;0.60;;;;;;;2.54;43.22;103264.69;5111672;28;20069;-72
2024/01/10 08:15:55;;;;;;;0.70;0.70;;;;;;;2.34;43.86;103260.03;5084989;28;20046;-72
2024/01/10 08:18:21;;;;;;;0.50;0.50;;;;;;;2.39;44.21;103256.09;5090933;28;20043;-72
2024/01/10 08:20:46;;;;;;;0.60;0.60;;;;;;;2.60;43.49;103266.91;5091208;28;20496;-73
2024/01/10 08:23:12;;;;;;;0.50;0.50;;;;;;;2.82;42.49;103252.88;5091174;28;20028;-71
2024/01/10 08:25:38;;;;;;;0.60;0.60;;;;;;;2.63;43.37;103266.69;5091445;28;20038;-71
2024/01/10 08:28:03;;;;;;;0.60;0.60;;;;;;;2.16;44.05;103258.72;5090858;28;20119;-71
2024/01/10 08:30:29;;;;;;;0.60;0.60;;;;;;;2.53;44.15;103265.69;5090333;28;20575;-75
2024/01/10 08:32:54;;;;;;;0.60;0.60;;;;;;;2.49;43.41;103258.91;5090741;28;20088;-73
2024/01/10 08:35:20;;;;;;;0.70;0.70;;;;;;;2.82;43.00;103267.00;5096936;28;20034;-72
2024/01/10 08:37:46;;;;;;;0.57;0.57;;;;;;;3.14;42.42;103269.88;5110933;28;20437;-72
2024/01/10 08:40:14;;;;;;;0.57;0.57;;;;;;;3.69;41.86;103274.41;5110774;28;20035;-72
2024/01/10 08:42:40;;;;;;;0.63;0.63;;;;;;;3.67;40.70;103276.31;5110808;28;20036;-70
2024/01/10 08:45:09;;;;;;;0.40;0.40;;;;;;;3.25;41.82;103275.19;5111097;28;20488;-72
2024/01/10 08:47:34;;;;;;;0.50;0.50;;;;;;;3.49;41.35;103273.31;5110739;28;20405;-72
2024/01/10 08:50:01;;;;;;;1.03;1.03;;;;;;;3.12;41.64;103259.38;5092806;28;20039;-73
2024/01/10 08:52:27;;;;;;;0.57;0.57;;;;;;;3.23;41.59;103258.53;5110782;28;20452;-70
2024/01/10 08:54:52;;;;;;;0.70;0.70;;;;;;;3.69;40.60;103263.75;5110645;28;20111;-72
2024/01/10 08:57:17;;;;;;;0.50;0.50;;;;;;;3.69;40.42;103261.97;5091454;28;20147;-71
2024/01/10 08:59:43;;;;;;;0.60;0.60;;;;;;;3.78;39.80;103252.38;5110206;28;20491;-73
2024/01/10 09:02:08;;;;;;;0.50;0.50;;;;;;;3.86;39.78;103258.78;5074581;28;20051;-71
2024/01/10 09:04:34;;;;;;;0.70;0.70;;;;;;;3.90;39.87;103254.06;5110009;28;20059;-73
2024/01/10 09:06:59;;;;;;;0.70;0.70;;;;;;;4.05;39.93;103253.69;5110576;28;20119;-72
2024/01/10 09:09:24;;;;;;;0.50;0.50;;;;;;;4.03;39.28;103252.97;5110338;28;20075;-75
2024/01/10 09:11:50;;;;;;;0.50;0.50;;;;;;;3.73;39.85;103257.22;5110616;28;20542;-75
2024/01/10 09:14:15;;;;;;;0.70;0.70;;;;;;;4.03;38.82;103262.78;5110677;28;20072;-74
2024/01/10 09:16:41;;;;;;;0.60;0.60;;;;;;;3.74;39.56;103262.41;5108847;28;20068;-73
2024/01/10 09:19:06;;;;;;;0.60;0.60;;;;;;;4.22;38.96;103258.50;5110039;28;20048;-72
2024/01/10 09:21:34;;;;;;;0.50;0.50;;;;;;;4.12;38.29;103257.56;5110650;28;20089;-75
2024/01/10 09:24:00;;;;;;;0.60;0.60;;;;;;;4.14;39.25;103260.94;5110473;28;20091;-75
2024/01/10 09:26:25;;;;;;;0.50;0.50;;;;;;;4.03;38.19;103276.91;5109844;28;22980;-71
2024/01/10 09:28:50;;;;;;;0.50;0.50;;;;;;;4.14;37.63;103260.94;5110508;28;20058;-72
2024/01/10 09:31:16;;;;;;;0.60;0.60;;;;;;;4.15;38.34;103261.75;5108925;28;20163;-72
2024/01/10 09:33:41;;;;;;;0.60;0.60;;;;;;;4.41;37.46;103269.31;5109213;28;20055;-72
2024/01/10 09:36:07;;;;;;;0.57;0.57;;;;;;;4.50;37.93;103261.56;5109528;28;20168;-71
2024/01/10 09:38:37;;;;;;;0.50;0.50;;;;;;;4.61;37.36;103258.84;5109730;28;20106;-72
2024/01/10 09:41:03;;;;;;;0.40;0.40;;;;;;;4.40;36.84;103262.28;5110256;28;20145;-73
2024/01/10 09:43:30;;;;;;;0.57;0.57;;;;;;;4.55;37.36;103265.53;5109927;28;20449;-72
2024/01/10 09:45:58;;;;;;;0.60;0.60;;;;;;;4.90;36.20;103266.09;5109630;28;20050;-73
2024/01/10 09:48:25;;;;;;;0.60;0.60;;;;;;;4.92;35.91;103258.81;5091345;28;20035;-73
2024/01/10 09:50:52;;;;;;;0.50;0.50;;;;;;;4.53;35.71;103261.28;5109413;28;20038;-73
2024/01/10 09:53:27;;;;;;;0.50;0.50;;;;;;;5.05;35.68;103256.81;5109894;28;20027;-73
2024/01/10 09:55:56;;;;;;;0.50;0.50;;;;;;;4.85;35.13;103257.66;5110603;28;20100;-72
2024/01/10 09:58:24;;;;;;;0.50;0.50;;;;;;;4.77;35.57;103254.78;5109652;28;20043;-72
2024/01/10 10:00:51;;;;;;;0.60;0.60;;;;;;;4.98;35.65;103254.78;5109735;28;20425;-72
2024/01/10 10:03:18;;;;;;;0.50;0.50;;;;;;;4.02;36.04;103243.31;5089106;28;20047;-72
2024/01/10 10:05:43;;;;;;;0.60;0.60;;;;;;;4.48;36.22;103259.03;5098472;28;20036;-72
2024/01/10 10:08:10;;;;;;;0.53;0.53;;;;;;;4.85;35.23;103252.34;5109350;28;20449;-72
2024/01/10 10:10:42;;;;;;;0.60;0.60;;;;;;;4.22;35.92;103241.69;5109660;28;20031;-73
2024/01/10 10:13:10;;;;;;;0.60;0.60;;;;;;;5.10;35.27;103248.41;5091043;28;20460;-72
2024/01/10 10:15:36;;;;;;;0.50;0.50;;;;;;;5.33;34.31;103248.16;5103787;28;20036;-72
2024/01/10 10:18:02;;;;;;;0.60;0.60;;;;;;;4.56;34.95;103237.09;5088895;28;20035;-72
2024/01/10 10:20:32;;;;;;;0.50;0.50;;;;;;;4.77;35.34;103235.28;5089205;28;20436;-73
2024/01/10 10:23:04;;;;;;;0.60;0.60;;;;;;;4.72;35.13;103233.00;5087841;28;20024;-71
2024/01/10 10:25:29;;;;;;;0.53;0.53;;;;;;;5.45;33.99;103230.22;5088665;28;20040;-72
2024/01/10 10:27:55;;;;;;;0.50;0.50;;;;;;;4.65;35.25;103223.84;5095529;28;20058;-73
2024/01/10 10:30:20;;;;;;;0.40;0.40;;;;;;;4.82;35.49;103225.09;5108791;28;20058;-71
2024/01/10 10:32:46;;;;;;;0.57;0.57;;;;;;;4.63;35.94;103224.94;5108872;28;20052;-72
2024/01/10 10:35:11;;;;;;;0.60;0.60;;;;;;;5.33;34.65;103228.63;5108910;28;20031;-71
2024/01/10 10:37:36;;;;;;;0.50;0.50;;;;;;;4.62;35.16;103223.28;5109679;28;20044;-72
2024/01/10 10:40:02;;;;;;;0.50;0.50;;;;;;;5.61;34.47;103237.75;5108939;28;20096;-72
2024/01/10 10:42:30;;;;;;;0.40;0.40;;;;;;;5.09;34.08;103228.09;5108918;28;20115;-72
2024/01/10 10:45:01;;;;;;;0.60;0.60;;;;;;;5.34;34.90;103230.34;5108997;28;20566;-73
2024/01/10 10:47:33;;;;;;;0.40;0.40;;;;;;;5.61;33.84;103233.25;5108955;28;20526;-73
2024/01/10 10:50:02;;;;;;;0.40;0.40;;;;;;;5.38;34.73;103226.44;5109922;28;20425;-73
2024/01/10 10:52:28;;;;;;;0.60;0.60;;;;;;;5.42;33.66;103235.00;5109450;28;20028;-67
2024/01/10 10:54:57;;;;;;;0.60;0.60;;;;;;;5.96;33.42;103240.84;5107655;28;20034;-66
2024/01/10 10:57:25;;;;;;;0.50;0.50;;;;;;;6.10;33.68;103237.78;5108162;28;20034;-66
2024/01/10 10:59:52;;;;;;;0.50;0.50;;;;;;;6.20;32.88;103228.81;5108171;28;20126;-67
2024/01/10 11:02:24;;;;;;;0.60;0.60;;;;;;;6.02;33.21;103227.81;5106806;28;20436;-66
2024/01/10 11:04:50;;;;;;;0.50;0.50;;;;;;;5.40;33.62;103237.81;5112685;28;20502;-65
2024/01/10 11:07:15;;;;;;;0.50;0.50;;;;;;;5.56;32.91;103237.31;5112362;28;20039;-65
2024/01/10 11:09:43;;;;;;;0.40;0.40;;;;;;;6.01;33.13;103233.28;5112240;28;20044;-67
2024/01/10 11:12:14;;;;;;;0.50;0.50;;;;;;;5.84;32.93;103231.25;5112432;28;20384;-67
2024/01/10 11:14:50;;;;;;;;;;;;;;;6.63;32.31;103231.09;5112735;28;20034;-69
2024/01/10 11:17:19;;;;;;;;;;;;;;;5.83;32.86;103225.09;5112390;28;19926;-66
2024/01/10 11:19:59;;;;;;;;;;;;;;;5.76;32.98;103226.56;5113192;28;19908;-67
2024/01/10 11:22:30;;;;;;;;;;;;;;;6.44;32.74;103230.25;5112235;28;20284;-67
2024/01/10 11:24:55;;;;;;;;;;;;;;;6.51;31.74;103226.03;5112382;28;20036;-67
2024/01/10 11:27:20;;;;;;;;;;;;;;;6.77;31.21;103228.00;5112145;28;20010;-67
2024/01/10 11:29:47;;;;;;;;;;;;;;;6.51;31.18;103234.88;5112185;28;20015;-67